Time;durP1;ratioP1;P1;durP2;ratioP2;P2;SDS_P1;SDS_P2;PMS_P1;PMS_P2;Temp;Humidity;BMP_temperature;BMP_pressure;BME280_temperature;BME280_humidity;BME280_pressure;Samples;Min_cycle;Max_cycle;Signal;HPM_P1;HPM_P2
2022/11/07 00:02:26;;;;;;;1.60;1.25;;;10.50;89.50;;;;;;5022929;28;20458;-72
2022/11/07 00:04:54;;;;;;;1.67;1.52;;;10.50;89.60;;;;;;5025354;28;20427;-72
2022/11/07 00:07:20;;;;;;;1.83;1.73;;;10.50;89.90;;;;;;5027666;28;20423;-74
2022/11/07 00:09:47;;;;;;;1.50;1.40;;;10.50;90.00;;;;;;5024977;28;20770;-72
2022/11/07 00:12:14;;;;;;;1.52;1.40;;;10.40;90.20;;;;;;5025099;28;20419;-73
2022/11/07 00:14:41;;;;;;;2.80;2.00;;;10.40;90.20;;;;;;5025885;28;20925;-73
2022/11/07 00:17:08;;;;;;;1.60;1.30;;;10.40;90.50;;;;;;5023886;28;20449;-72
2022/11/07 00:19:34;;;;;;;2.25;1.50;;;10.30;90.50;;;;;;5025840;28;20443;-72
2022/11/07 00:22:03;;;;;;;2.30;1.70;;;10.40;90.50;;;;;;5025453;28;20430;-73
2022/11/07 00:24:29;;;;;;;3.00;1.40;;;10.40;90.60;;;;;;5024382;28;20438;-73
2022/11/07 00:26:56;;;;;;;1.70;1.20;;;10.30;90.70;;;;;;5026472;28;20432;-73
2022/11/07 00:29:23;;;;;;;1.52;1.40;;;10.40;90.60;;;;;;5024436;28;20809;-73
2022/11/07 00:31:50;;;;;;;2.00;1.30;;;10.40;90.60;;;;;;5022978;28;20438;-72
2022/11/07 00:34:16;;;;;;;2.20;1.60;;;10.30;90.80;;;;;;5024047;28;20435;-73
2022/11/07 00:36:43;;;;;;;1.73;1.63;;;10.30;91.00;;;;;;5025523;28;20976;-73
2022/11/07 00:39:12;;;;;;;1.90;1.40;;;10.40;90.80;;;;;;5024096;28;20435;-73
2022/11/07 00:41:38;;;;;;;1.58;1.30;;;10.40;90.90;;;;;;5026170;28;20447;-73
2022/11/07 00:44:06;;;;;;;1.67;1.40;;;10.30;91.00;;;;;;5026761;28;20437;-71
2022/11/07 00:46:32;;;;;;;1.25;1.10;;;10.30;91.00;;;;;;5025847;28;20431;-72
2022/11/07 00:48:59;;;;;;;2.00;1.20;;;10.30;91.00;;;;;;5025094;28;20438;-73
2022/11/07 00:51:27;;;;;;;1.98;1.27;;;10.40;91.00;;;;;;5057582;22;20448;-71
2022/11/07 00:53:55;;;;;;;1.70;1.20;;;10.40;91.10;;;;;;5045577;28;20434;-71
2022/11/07 00:56:24;;;;;;;1.23;1.10;;;10.40;91.10;;;;;;5050405;28;20760;-71
2022/11/07 00:58:54;;;;;;;1.20;1.10;;;10.40;91.00;;;;;;5053753;28;20435;-71
2022/11/07 01:01:24;;;;;;;2.00;1.30;;;10.40;91.10;;;;;;5059244;28;20526;-71
2022/11/07 01:06:37;;;;;;;2.50;1.30;;;10.40;91.10;;;;;;5062826;28;20781;-71
2022/11/07 01:09:05;;;;;;;2.08;1.52;;;10.50;90.90;;;;;;5070880;28;20449;-71
2022/11/07 01:11:35;;;;;;;2.20;1.40;;;10.50;90.80;;;;;;5059763;28;20424;-71
2022/11/07 01:14:03;;;;;;;2.60;1.30;;;10.50;90.70;;;;;;5056227;28;20495;-71
2022/11/07 01:16:33;;;;;;;1.50;1.37;;;10.50;90.80;;;;;;5068350;28;20923;-71
2022/11/07 01:19:00;;;;;;;1.92;1.40;;;10.60;90.70;;;;;;5085275;28;20519;-71
2022/11/07 01:21:27;;;;;;;1.42;1.33;;;10.60;90.40;;;;;;5059231;28;20438;-71
2022/11/07 01:23:54;;;;;;;2.40;1.50;;;10.70;90.30;;;;;;5057875;28;20431;-71
2022/11/07 01:26:20;;;;;;;2.00;1.20;;;10.70;90.20;;;;;;5076960;28;20418;-71
2022/11/07 01:28:49;;;;;;;2.90;1.35;;;10.70;90.10;;;;;;5067367;28;20445;-72
2022/11/07 01:31:17;;;;;;;1.50;1.20;;;10.70;90.00;;;;;;5061420;28;20435;-71
2022/11/07 01:33:44;;;;;;;1.92;1.42;;;10.70;90.00;;;;;;5061212;28;20786;-73
2022/11/07 01:36:13;;;;;;;2.05;1.40;;;10.70;89.80;;;;;;5066505;28;20485;-71
2022/11/07 01:38:42;;;;;;;1.92;1.30;;;10.80;89.50;;;;;;5066894;28;20926;-71
2022/11/07 01:41:24;;;;;;;2.40;1.50;;;10.80;89.30;;;;;;5065981;28;20425;-71
2022/11/07 01:43:58;;;;;;;1.63;1.50;;;10.90;88.80;;;;;;5059353;28;20459;-72
2022/11/07 01:46:28;;;;;;;2.47;1.83;;;10.80;89.20;;;;;;5057674;28;20435;-71
2022/11/07 01:49:07;;;;;;;2.10;1.50;;;10.80;89.80;;;;;;5062341;28;21376;-71
2022/11/07 01:51:39;;;;;;;2.67;1.75;;;10.70;89.90;;;;;;5062067;28;20421;-72
2022/11/07 01:54:06;;;;;;;2.20;1.60;;;10.70;89.80;;;;;;5069979;28;20784;-72
2022/11/07 01:56:37;;;;;;;1.75;1.55;;;10.70;90.10;;;;;;5060974;28;20448;-72
2022/11/07 01:59:06;;;;;;;2.13;1.90;;;10.60;90.20;;;;;;5063647;28;20436;-72
2022/11/07 02:01:33;;;;;;;2.80;1.80;;;10.60;90.30;;;;;;5066457;28;20427;-72
2022/11/07 02:04:01;;;;;;;2.50;1.60;;;10.60;90.30;;;;;;5071351;28;20437;-71
2022/11/07 02:06:36;;;;;;;2.20;1.60;;;10.60;90.30;;;;;;5067356;28;20417;-72
2022/11/07 02:09:03;;;;;;;2.20;1.70;;;10.50;90.30;;;;;;5059092;28;20432;-71
2022/11/07 02:11:30;;;;;;;2.22;1.50;;;10.50;90.30;;;;;;5047937;28;20432;-71
2022/11/07 02:13:57;;;;;;;3.10;1.70;;;10.50;90.40;;;;;;5052240;28;20429;-71
2022/11/07 02:16:25;;;;;;;4.17;1.90;;;10.50;90.40;;;;;;5062702;28;20437;-71
2022/11/07 02:18:52;;;;;;;2.90;1.80;;;10.50;90.60;;;;;;5067600;28;20438;-71
2022/11/07 02:21:27;;;;;;;2.80;2.00;;;10.40;90.70;;;;;;5077935;28;20436;-73
2022/11/07 02:23:57;;;;;;;4.00;1.70;;;10.40;90.60;;;;;;5048451;28;20440;-73
2022/11/07 02:26:26;;;;;;;2.90;1.90;;;10.50;90.60;;;;;;5063408;28;20409;-75
2022/11/07 02:28:55;;;;;;;3.50;2.03;;;10.50;90.60;;;;;;5050195;28;20429;-74
2022/11/07 02:31:22;;;;;;;2.88;2.10;;;10.40;90.80;;;;;;5057698;28;20434;-73
2022/11/07 02:33:48;;;;;;;2.00;1.80;;;10.40;90.80;;;;;;5078166;28;20447;-73
2022/11/07 02:36:18;;;;;;;3.25;1.90;;;10.40;90.80;;;;;;5080315;28;20420;-73
2022/11/07 02:38:47;;;;;;;3.78;2.40;;;10.40;90.90;;;;;;5082909;28;20439;-73
2022/11/07 02:41:18;;;;;;;2.10;1.90;;;10.40;90.90;;;;;;5068898;28;20490;-72
2022/11/07 02:43:51;;;;;;;4.25;2.10;;;10.30;91.00;;;;;;5062864;28;20798;-73
2022/11/07 02:46:18;;;;;;;3.70;2.13;;;10.40;90.90;;;;;;5058738;28;20490;-73
2022/11/07 02:48:47;;;;;;;3.03;2.20;;;10.40;91.20;;;;;;5066825;28;20516;-73
2022/11/07 02:51:14;;;;;;;2.20;1.80;;;10.40;90.90;;;;;;5067905;28;20499;-72
2022/11/07 02:53:41;;;;;;;3.53;2.40;;;10.40;90.90;;;;;;5065056;28;20546;-73
2022/11/07 02:56:08;;;;;;;3.90;2.20;;;10.30;91.10;;;;;;5071108;28;20452;-72
2022/11/07 02:58:36;;;;;;;4.30;2.38;;;10.30;91.20;;;;;;5062779;28;20952;-73
2022/11/07 03:01:06;;;;;;;3.25;2.47;;;10.30;91.30;;;;;;5061473;28;20440;-73
2022/11/07 03:03:34;;;;;;;4.03;2.30;;;10.30;91.30;;;;;;5060974;28;20461;-73
2022/11/07 03:06:01;;;;;;;2.95;2.30;;;10.30;91.40;;;;;;5070257;28;20421;-72
2022/11/07 03:08:28;;;;;;;3.88;2.50;;;10.30;91.50;;;;;;5059930;28;20829;-73
2022/11/07 03:10:55;;;;;;;2.70;2.03;;;10.20;91.60;;;;;;5061935;28;20432;-72
2022/11/07 03:13:22;;;;;;;3.75;2.67;;;10.20;91.70;;;;;;5062200;28;20537;-73
2022/11/07 03:15:49;;;;;;;4.18;2.13;;;10.20;91.80;;;;;;5060385;28;20453;-72
2022/11/07 03:18:17;;;;;;;3.30;2.00;;;10.20;91.80;;;;;;5066400;28;20456;-73
2022/11/07 03:20:44;;;;;;;2.05;1.85;;;10.10;91.80;;;;;;5059380;28;20892;-72
2022/11/07 03:23:11;;;;;;;4.43;2.10;;;10.10;91.90;;;;;;5049683;28;20445;-72
2022/11/07 03:25:38;;;;;;;2.20;2.00;;;10.00;92.10;;;;;;5077057;28;20433;-72
2022/11/07 03:28:05;;;;;;;2.80;2.10;;;10.00;92.20;;;;;;5060846;28;20589;-72
2022/11/07 03:30:31;;;;;;;3.08;2.30;;;10.00;92.30;;;;;;5058562;28;20434;-73
2022/11/07 03:32:58;;;;;;;2.85;2.25;;;10.00;92.40;;;;;;5064960;28;20504;-73
2022/11/07 03:35:26;;;;;;;3.75;2.00;;;9.90;92.50;;;;;;5068559;28;20426;-73
2022/11/07 03:37:54;;;;;;;3.22;2.15;;;9.90;92.60;;;;;;5053051;28;21177;-72
2022/11/07 03:40:20;;;;;;;2.65;2.00;;;9.90;92.70;;;;;;5061056;28;20420;-73
2022/11/07 03:42:47;;;;;;;2.35;2.00;;;9.90;92.80;;;;;;5068142;28;20428;-73
2022/11/07 03:45:15;;;;;;;3.30;2.10;;;9.90;92.80;;;;;;5054723;28;20479;-72
2022/11/07 03:47:44;;;;;;;2.97;2.38;;;9.90;92.90;;;;;;5062540;28;20426;-72
2022/11/07 03:50:13;;;;;;;4.22;2.30;;;9.90;93.00;;;;;;5057481;28;20798;-72
2022/11/07 03:52:41;;;;;;;3.90;2.03;;;9.80;93.00;;;;;;5060003;28;20421;-73
2022/11/07 03:55:09;;;;;;;4.78;2.10;;;9.80;93.10;;;;;;5071966;28;20443;-73
2022/11/07 03:57:36;;;;;;;3.65;1.98;;;9.90;93.10;;;;;;5062457;28;20484;-73
2022/11/07 04:00:05;;;;;;;4.57;2.50;;;9.80;93.10;;;;;;5053792;28;20823;-72
2022/11/07 04:02:32;;;;;;;3.50;2.05;;;9.80;93.10;;;;;;5057911;28;20754;-72
2022/11/07 04:04:58;;;;;;;3.28;2.10;;;9.80;93.10;;;;;;5058513;28;20433;-73
2022/11/07 04:07:25;;;;;;;4.30;2.30;;;9.80;93.20;;;;;;5061138;28;20532;-73
2022/11/07 04:09:53;;;;;;;3.75;2.22;;;9.80;93.30;;;;;;5070691;28;20453;-72
2022/11/07 04:17:49;;;;;;;3.65;2.42;;;9.80;93.20;;;;;;5062309;28;20436;-73
2022/11/07 04:20:16;;;;;;;3.50;2.40;;;9.90;93.30;;;;;;5052939;28;20753;-73
2022/11/07 04:22:42;;;;;;;4.22;2.58;;;9.80;93.70;;;;;;5054097;28;20917;-73
2022/11/07 04:25:11;;;;;;;3.72;2.15;;;9.90;93.30;;;;;;5078220;28;20427;-73
2022/11/07 04:27:42;;;;;;;4.03;2.50;;;9.80;93.30;;;;;;5068636;28;20407;-72
2022/11/07 04:30:26;;;;;;;3.13;2.20;;;9.80;93.40;;;;;;5054922;28;20480;-72
2022/11/07 04:32:54;;;;;;;3.22;2.30;;;9.70;93.50;;;;;;5066751;28;20486;-74
2022/11/07 04:35:23;;;;;;;5.33;3.10;;;9.70;93.60;;;;;;5071370;28;20421;-72
2022/11/07 04:37:50;;;;;;;4.97;2.80;;;9.70;93.70;;;;;;5078319;28;20527;-72
2022/11/07 04:40:19;;;;;;;3.72;2.40;;;9.70;93.70;;;;;;5059116;28;20466;-73
2022/11/07 04:42:47;;;;;;;5.18;2.55;;;9.70;93.60;;;;;;5054325;28;20439;-73
2022/11/07 04:45:14;;;;;;;5.95;2.97;;;9.80;93.70;;;;;;5062227;28;20432;-72
2022/11/07 04:47:41;;;;;;;4.43;2.65;;;9.80;93.70;;;;;;5062984;28;20443;-72
2022/11/07 04:50:10;;;;;;;5.20;2.78;;;9.70;93.60;;;;;;5073579;28;20419;-73
2022/11/07 04:52:37;;;;;;;2.83;2.50;;;9.70;93.70;;;;;;5054041;28;20442;-72
2022/11/07 04:55:04;;;;;;;4.13;2.35;;;9.80;93.50;;;;;;5066335;28;20438;-73
2022/11/07 04:57:33;;;;;;;4.80;2.33;;;9.90;93.30;;;;;;5068291;28;20450;-73
2022/11/07 04:59:59;;;;;;;5.63;2.65;;;10.10;92.90;;;;;;5083935;28;20426;-73
2022/11/07 05:02:26;;;;;;;7.15;2.80;;;10.20;92.60;;;;;;5062081;28;20507;-72
2022/11/07 05:04:53;;;;;;;4.65;2.22;;;10.20;92.20;;;;;;5066478;28;20419;-72
2022/11/07 05:07:20;;;;;;;6.05;2.45;;;10.20;92.10;;;;;;5067606;28;20453;-72
2022/11/07 05:09:47;;;;;;;4.13;2.50;;;10.30;92.00;;;;;;5070334;28;21079;-73
2022/11/07 05:12:14;;;;;;;3.80;2.20;;;10.30;91.90;;;;;;5057283;28;20442;-72
2022/11/07 05:14:42;;;;;;;3.83;2.25;;;10.30;91.70;;;;;;5078270;28;20429;-73
2022/11/07 05:17:13;;;;;;;4.60;2.20;;;10.30;91.70;;;;;;5074555;28;20417;-72
2022/11/07 05:19:41;;;;;;;3.45;2.10;;;10.40;91.60;;;;;;5064932;28;20413;-73
2022/11/07 05:24:53;;;;;;;4.50;1.97;;;10.40;91.50;;;;;;5064059;28;20542;-72
2022/11/07 05:27:21;;;;;;;4.37;2.20;;;10.30;91.50;;;;;;5069602;28;20417;-73
2022/11/07 05:29:49;;;;;;;4.40;2.10;;;10.30;91.50;;;;;;5070098;28;20938;-71
2022/11/07 05:32:16;;;;;;;5.65;2.10;;;10.40;91.40;;;;;;5075732;28;20427;-72
2022/11/07 05:34:43;;;;;;;4.55;2.22;;;10.40;91.20;;;;;;5078305;28;20425;-72
2022/11/07 05:37:11;;;;;;;4.13;2.00;;;10.30;91.30;;;;;;5076511;28;20422;-73
2022/11/07 05:39:38;;;;;;;4.32;2.00;;;10.30;91.20;;;;;;5073964;28;20968;-76
2022/11/07 05:42:05;;;;;;;5.35;1.92;;;10.40;91.10;;;;;;5068944;28;20431;-78
2022/11/07 05:44:32;;;;;;;5.63;2.28;;;10.50;90.80;;;;;;5075735;28;20528;-75
2022/11/07 05:47:00;;;;;;;3.83;1.80;;;10.50;90.80;;;;;;5066448;28;20526;-77
2022/11/07 05:49:27;;;;;;;5.38;1.80;;;10.50;90.80;;;;;;5068393;28;20504;-76
2022/11/07 05:51:54;;;;;;;5.85;2.30;;;10.60;90.60;;;;;;5058987;28;20912;-76
2022/11/07 05:54:21;;;;;;;4.20;1.70;;;10.60;90.40;;;;;;5064398;28;20503;-76
2022/11/07 05:56:47;;;;;;;3.90;1.80;;;10.60;90.30;;;;;;5067626;28;21053;-75
2022/11/07 05:59:14;;;;;;;5.22;2.50;;;10.70;90.20;;;;;;5079238;28;20411;-76
2022/11/07 06:01:41;;;;;;;4.10;1.80;;;10.70;90.00;;;;;;5065563;28;20905;-75
2022/11/07 06:04:09;;;;;;;5.85;1.98;;;10.70;89.90;;;;;;5064568;28;20490;-74
2022/11/07 06:06:36;;;;;;;4.95;2.10;;;10.80;90.30;;;;;;5060054;28;20834;-75
2022/11/07 06:09:03;;;;;;;3.53;1.77;;;10.80;89.60;;;;;;5055862;28;20435;-75
2022/11/07 06:11:31;;;;;;;4.95;2.13;;;10.90;89.10;;;;;;5049265;28;20918;-75
2022/11/07 06:13:58;;;;;;;4.30;1.80;;;10.90;88.90;;;;;;5055999;28;20740;-75
2022/11/07 06:16:25;;;;;;;6.88;1.90;;;10.90;88.80;;;;;;5054582;28;20458;-75
2022/11/07 06:18:52;;;;;;;5.60;1.85;;;11.00;88.30;;;;;;5060973;28;20500;-75
2022/11/07 06:21:20;;;;;;;5.63;2.20;;;11.10;87.80;;;;;;5052561;28;20543;-75
2022/11/07 06:23:46;;;;;;;4.60;1.80;;;11.10;87.50;;;;;;5056485;28;20433;-74
2022/11/07 06:26:13;;;;;;;4.33;1.90;;;11.10;87.40;;;;;;5054970;28;20470;-76
2022/11/07 06:28:40;;;;;;;5.80;1.98;;;11.20;87.30;;;;;;5061506;28;20450;-75
2022/11/07 06:31:07;;;;;;;4.40;1.85;;;11.20;87.20;;;;;;5060371;28;20440;-75
2022/11/07 06:33:34;;;;;;;5.15;1.90;;;11.30;86.60;;;;;;5064950;28;20754;-75
2022/11/07 06:36:08;;;;;;;6.38;1.90;;;11.40;86.30;;;;;;5050291;28;22125;-75
2022/11/07 06:38:37;;;;;;;4.32;2.00;;;11.40;85.90;;;;;;5061384;28;20538;-75
2022/11/07 06:41:05;;;;;;;15.90;4.03;;;11.50;85.70;;;;;;5050791;28;20431;-75
2022/11/07 06:43:33;;;;;;;9.35;2.63;;;11.50;85.80;;;;;;5045786;28;20486;-74
2022/11/07 06:46:03;;;;;;;8.25;2.30;;;11.50;85.70;;;;;;5060972;28;20485;-75
2022/11/07 06:48:30;;;;;;;5.30;2.00;;;11.50;85.70;;;;;;5055437;28;20496;-75
2022/11/07 06:50:58;;;;;;;4.47;1.80;;;11.60;85.70;;;;;;5063801;28;20431;-75
2022/11/07 06:53:25;;;;;;;5.37;1.90;;;11.60;85.50;;;;;;5066515;28;20524;-74
2022/11/07 06:55:54;;;;;;;6.43;2.47;;;11.60;85.60;;;;;;5061704;28;20431;-75
2022/11/07 06:58:21;;;;;;;6.00;2.10;;;11.60;85.60;;;;;;5065463;28;20443;-74
2022/11/07 07:00:48;;;;;;;5.10;1.92;;;11.70;85.60;;;;;;5062390;28;20432;-76
2022/11/07 07:03:15;;;;;;;5.72;2.20;;;11.70;85.50;;;;;;5054753;28;20427;-75
2022/11/07 07:05:41;;;;;;;5.30;2.55;;;11.70;85.50;;;;;;5055961;28;20428;-74
2022/11/07 07:08:12;;;;;;;4.72;1.80;;;11.80;85.90;;;;;;5050272;28;20938;-74
2022/11/07 07:10:42;;;;;;;5.40;2.30;;;11.90;86.40;;;;;;5063758;28;20792;-75
2022/11/07 07:13:11;;;;;;;5.55;2.20;;;11.90;87.40;;;;;;5068066;28;20427;-75
2022/11/07 07:15:38;;;;;;;5.53;1.90;;;11.90;86.50;;;;;;5051948;28;20438;-75
2022/11/07 07:18:05;;;;;;;4.97;2.00;;;11.90;86.60;;;;;;5072010;28;20444;-76
2022/11/07 07:20:32;;;;;;;4.50;2.42;;;12.00;86.70;;;;;;5076355;28;20431;-76
2022/11/07 07:22:58;;;;;;;6.32;2.50;;;12.00;86.40;;;;;;5075984;28;20421;-77
2022/11/07 07:25:25;;;;;;;6.75;2.60;;;12.00;86.60;;;;;;5068499;28;20526;-76
2022/11/07 07:27:52;;;;;;;5.65;2.28;;;12.00;86.40;;;;;;5058308;28;20511;-76
2022/11/07 07:30:21;;;;;;;4.85;1.90;;;12.10;86.20;;;;;;5055334;28;20419;-75
2022/11/07 07:32:47;;;;;;;8.38;2.00;;;12.10;86.00;;;;;;5071657;28;20427;-75
2022/11/07 07:35:14;;;;;;;5.03;2.33;;;12.20;85.70;;;;;;5063411;28;20506;-76
2022/11/07 07:37:41;;;;;;;4.97;2.28;;;12.20;86.30;;;;;;5052588;28;20436;-76
2022/11/07 07:40:09;;;;;;;3.50;2.17;;;12.20;86.30;;;;;;5062233;28;20504;-76
2022/11/07 07:42:40;;;;;;;7.00;2.70;;;12.20;86.40;;;;;;5054816;28;20485;-77
2022/11/07 07:45:09;;;;;;;3.45;1.90;;;12.20;86.60;;;;;;5058297;28;20477;-75
2022/11/07 07:47:37;;;;;;;6.13;2.33;;;12.30;86.90;;;;;;5049153;28;20421;-76
2022/11/07 07:50:05;;;;;;;3.92;2.30;;;12.30;86.90;;;;;;5054931;28;20793;-75
2022/11/07 07:52:31;;;;;;;5.95;1.95;;;12.40;87.00;;;;;;5068563;22;20437;-70
2022/11/07 07:54:58;;;;;;;3.00;1.95;;;12.40;87.00;;;;;;5070237;28;20413;-71
2022/11/07 07:57:25;;;;;;;4.25;1.85;;;12.50;86.70;;;;;;5061833;28;20433;-71
2022/11/07 07:59:51;;;;;;;4.80;2.00;;;12.50;87.10;;;;;;5048070;28;20947;-70
2022/11/07 08:02:18;;;;;;;4.85;2.30;;;12.50;87.00;;;;;;5053015;28;20429;-70
2022/11/07 08:04:46;;;;;;;4.13;1.70;;;12.50;87.20;;;;;;5051610;28;20439;-70
2022/11/07 08:07:13;;;;;;;4.25;1.40;;;12.60;87.40;;;;;;5034691;28;20421;-72
2022/11/07 08:09:40;;;;;;;5.38;1.70;;;12.60;87.70;;;;;;5045571;28;20909;-71
2022/11/07 08:12:08;;;;;;;4.32;1.90;;;12.60;87.80;;;;;;5054245;28;20439;-71
2022/11/07 08:14:35;;;;;;;3.35;1.33;;;12.70;87.80;;;;;;5035400;28;20429;-71
2022/11/07 08:17:02;;;;;;;3.50;1.42;;;12.80;87.80;;;;;;5039637;28;20452;-71
2022/11/07 08:19:29;;;;;;;4.03;1.50;;;12.80;87.30;;;;;;5052975;28;20496;-71
2022/11/07 08:21:57;;;;;;;4.63;1.33;;;12.80;87.50;;;;;;5041992;28;20452;-72
2022/11/07 08:24:24;;;;;;;3.80;1.70;;;12.80;87.40;;;;;;5039008;28;20431;-72
2022/11/07 08:26:50;;;;;;;4.90;1.50;;;12.90;87.30;;;;;;5052316;28;20503;-71
2022/11/07 08:29:17;;;;;;;4.55;1.80;;;12.90;87.40;;;;;;5039557;28;20915;-72
2022/11/07 08:31:44;;;;;;;3.20;1.70;;;12.90;87.60;;;;;;5040643;28;20443;-71
2022/11/07 08:34:11;;;;;;;4.70;1.40;;;12.90;87.30;;;;;;5041130;28;20429;-71
2022/11/07 08:36:37;;;;;;;5.07;1.40;;;12.90;87.10;;;;;;5037598;28;20427;-71
2022/11/07 08:39:05;;;;;;;4.32;1.70;;;13.00;87.20;;;;;;5048347;28;20429;-74
2022/11/07 08:41:32;;;;;;;5.38;1.80;;;12.90;87.10;;;;;;5051189;28;20432;-72
2022/11/07 08:43:59;;;;;;;3.70;1.60;;;13.00;87.20;;;;;;5045842;28;20425;-71
2022/11/07 08:46:26;;;;;;;3.97;1.80;;;13.00;87.20;;;;;;5049853;28;20797;-72
2022/11/07 08:48:52;;;;;;;4.97;1.73;;;13.00;87.10;;;;;;5052086;28;20779;-71
2022/11/07 08:51:19;;;;;;;3.78;1.58;;;13.00;87.40;;;;;;5038484;28;20440;-72
2022/11/07 08:53:46;;;;;;;4.57;1.80;;;13.10;86.60;;;;;;5038210;28;21003;-72
2022/11/07 08:56:14;;;;;;;4.90;1.90;;;13.10;86.40;;;;;;5042157;28;20500;-71
2022/11/07 08:58:41;;;;;;;4.60;1.70;;;13.10;86.50;;;;;;5038054;28;20437;-71
2022/11/07 09:01:09;;;;;;;3.70;1.85;;;13.10;86.70;;;;;;5042288;28;20435;-72
2022/11/07 09:03:36;;;;;;;4.83;2.07;;;13.20;86.60;;;;;;5032574;28;20503;-72
2022/11/07 09:06:04;;;;;;;5.65;2.03;;;13.20;86.70;;;;;;5039087;28;20438;-71
2022/11/07 09:08:31;;;;;;;3.60;1.60;;;13.20;87.40;;;;;;5047386;28;20740;-72
2022/11/07 09:11:02;;;;;;;4.68;1.58;;;13.30;87.70;;;;;;5048227;28;20489;-72
2022/11/07 09:13:31;;;;;;;2.78;1.40;;;13.30;88.10;;;;;;5043768;28;20433;-70
2022/11/07 09:15:59;;;;;;;4.50;1.80;;;13.30;87.70;;;;;;5050036;28;20440;-71
2022/11/07 09:18:26;;;;;;;2.60;1.48;;;13.40;86.90;;;;;;5038196;28;20431;-75
2022/11/07 09:20:54;;;;;;;3.80;1.80;;;13.40;86.70;;;;;;5044485;28;20930;-72
2022/11/07 09:23:21;;;;;;;3.70;1.87;;;13.50;86.50;;;;;;5049691;28;20507;-71
2022/11/07 09:25:48;;;;;;;4.60;1.67;;;13.50;85.70;;;;;;5040756;28;20440;-72
2022/11/07 09:28:15;;;;;;;3.88;1.60;;;13.60;85.70;;;;;;5036177;28;20425;-72
2022/11/07 09:30:44;;;;;;;4.20;1.58;;;13.60;86.10;;;;;;5034974;28;20443;-71
2022/11/07 09:33:10;;;;;;;4.70;1.70;;;13.60;86.00;;;;;;5032049;28;20434;-71
2022/11/07 09:35:37;;;;;;;2.50;1.10;;;13.60;85.70;;;;;;5037689;28;20437;-76
2022/11/07 09:38:04;;;;;;;3.30;1.20;;;13.70;85.20;;;;;;5046772;28;20587;-71
2022/11/07 09:40:41;;;;;;;3.15;1.40;;;13.70;85.30;;;;;;5047309;28;20430;-70
2022/11/07 09:43:38;;;;;;;4.18;1.50;;;13.80;85.10;;;;;;5046720;28;20461;-71
2022/11/07 09:46:18;;;;;;;2.92;1.42;;;13.80;84.40;;;;;;5038873;28;20855;-71
2022/11/07 09:48:51;;;;;;;5.00;1.73;;;13.80;84.60;;;;;;5046315;28;20438;-71
2022/11/07 09:51:25;;;;;;;4.05;1.40;;;13.90;84.40;;;;;;5041698;28;20549;-69
2022/11/07 09:53:58;;;;;;;3.10;1.10;;;13.90;83.90;;;;;;5041588;28;20450;-67
2022/11/07 09:56:26;;;;;;;3.10;1.23;;;14.00;83.30;;;;;;5042421;28;20426;-70
2022/11/07 09:58:54;;;;;;;4.10;1.30;;;14.00;82.80;;;;;;5046834;28;20422;-71
2022/11/07 10:01:22;;;;;;;3.55;1.48;;;14.00;82.70;;;;;;5050815;28;21130;-68
2022/11/07 10:03:49;;;;;;;3.55;1.30;;;14.00;83.10;;;;;;5051774;28;20516;-69
2022/11/07 10:06:23;;;;;;;3.15;1.30;;;14.00;83.10;;;;;;5051402;28;20433;-69
2022/11/07 10:08:57;;;;;;;3.80;1.50;;;14.00;82.20;;;;;;5060717;28;20425;-70
2022/11/07 10:11:33;;;;;;;3.38;1.60;;;14.10;82.50;;;;;;5061575;28;20433;-69
2022/11/07 10:14:10;;;;;;;4.50;1.83;;;14.00;82.50;;;;;;5055654;28;20427;-70
2022/11/07 10:16:49;;;;;;;2.78;1.23;;;14.10;82.20;;;;;;5048282;28;20433;-68
2022/11/07 10:19:55;;;;;;;5.35;1.88;;;14.20;81.50;;;;;;5043351;28;20905;-68
2022/11/07 10:22:36;;;;;;;2.35;1.20;;;14.30;81.00;;;;;;4954468;28;21163;-67
2022/11/07 10:25:18;;;;;;;4.80;1.85;;;14.30;81.30;;;;;;4950851;28;20812;-68
2022/11/07 10:27:51;;;;;;;3.50;1.50;;;14.40;81.20;;;;;;5022319;28;20522;-69
2022/11/07 10:30:20;;;;;;;4.68;1.70;;;14.50;80.50;;;;;;5046982;28;20432;-70
2022/11/07 10:32:57;;;;;;;4.43;1.80;;;14.50;80.50;;;;;;5048679;28;20437;-69
2022/11/07 10:35:28;;;;;;;3.58;1.60;;;14.70;79.30;;;;;;5035269;28;20850;-68
2022/11/07 10:37:57;;;;;;;2.13;1.10;;;14.70;79.10;;;;;;5035324;28;20490;-70
2022/11/07 10:40:32;;;;;;;3.70;1.40;;;14.70;78.90;;;;;;5031748;28;20419;-70
2022/11/07 10:43:00;;;;;;;2.80;1.20;;;14.70;79.50;;;;;;5036151;28;20523;-71
2022/11/07 10:45:27;;;;;;;2.63;1.10;;;14.80;78.90;;;;;;5039085;28;20447;-68
2022/11/07 10:48:02;;;;;;;2.30;1.10;;;14.90;79.00;;;;;;5047595;28;20438;-70
2022/11/07 10:50:29;;;;;;;3.78;1.40;;;15.00;78.00;;;;;;5035996;28;20442;-69
2022/11/07 10:52:59;;;;;;;3.15;1.30;;;15.20;77.70;;;;;;5046750;28;20784;-69
2022/11/07 10:55:26;;;;;;;3.00;1.20;;;15.40;76.00;;;;;;5034556;28;20426;-69
2022/11/07 10:57:58;;;;;;;2.87;1.13;;;15.60;75.80;;;;;;5046857;28;20437;-72
2022/11/07 11:00:27;;;;;;;2.28;1.02;;;15.80;75.20;;;;;;5048446;28;22294;-68
2022/11/07 11:02:56;;;;;;;3.17;1.10;;;16.00;72.90;;;;;;5049557;28;20894;-70
2022/11/07 11:05:27;;;;;;;3.50;1.00;;;15.90;74.40;;;;;;5039822;28;20510;-69
2022/11/07 11:07:56;;;;;;;1.90;0.82;;;15.70;74.00;;;;;;5039712;28;20501;-70
2022/11/07 11:10:24;;;;;;;2.45;1.20;;;15.70;74.10;;;;;;5047899;28;20489;-71
2022/11/07 11:12:51;;;;;;;2.67;0.82;;;15.60;74.70;;;;;;5035248;28;20427;-70
2022/11/07 11:15:20;;;;;;;1.40;0.70;;;15.60;74.90;;;;;;5045774;28;20514;-71
2022/11/07 11:17:56;;;;;;;2.00;0.90;;;15.60;75.30;;;;;;5047096;28;20431;-71
2022/11/07 11:20:34;;;;;;;2.70;1.20;;;15.50;75.60;;;;;;5042116;28;20440;-70
2022/11/07 11:23:03;;;;;;;2.10;0.80;;;15.60;75.40;;;;;;5036370;28;20431;-70
2022/11/07 11:25:43;;;;;;;2.20;1.00;;;15.50;75.10;;;;;;5040750;28;20568;-69
2022/11/07 11:28:18;;;;;;;1.48;0.70;;;15.50;75.40;;;;;;5036768;28;20409;-70
2022/11/07 11:30:47;;;;;;;1.90;1.10;;;15.50;75.50;;;;;;5037704;28;20429;-69
2022/11/07 11:33:19;;;;;;;2.30;0.90;;;15.40;75.10;;;;;;5037210;28;21159;-71
2022/11/07 11:35:53;;;;;;;1.40;0.80;;;15.40;75.30;;;;;;5031749;28;20872;-70
2022/11/07 11:38:24;;;;;;;2.93;1.60;;;15.30;75.60;;;;;;5033713;28;20434;-71
2022/11/07 11:40:56;;;;;;;2.30;1.20;;;15.20;76.30;;;;;;5034717;28;20440;-69
2022/11/07 11:43:26;;;;;;;2.55;1.20;;;15.30;77.10;;;;;;5043408;28;20952;-72
2022/11/07 11:46:06;;;;;;;2.50;1.23;;;15.50;75.30;;;;;;5040749;28;20454;-70
2022/11/07 11:48:38;;;;;;;2.23;0.80;;;15.90;74.30;;;;;;5046175;28;20430;-69
2022/11/07 11:51:10;;;;;;;3.10;1.30;;;16.20;72.80;;;;;;5037668;28;20440;-67
2022/11/07 11:53:36;;;;;;;2.80;1.20;;;16.40;71.40;;;;;;5043076;28;20461;-70
2022/11/07 11:56:25;;;;;;;3.95;1.02;;;16.50;69.60;;;;;;5043059;28;20427;-69
2022/11/07 11:59:04;;;;;;;2.13;1.15;;;16.50;70.00;;;;;;5043515;28;20441;-71
2022/11/07 12:01:40;;;;;;;1.98;0.70;;;16.70;68.80;;;;;;5038010;28;20488;-69
2022/11/07 12:04:25;;;;;;;2.53;1.00;;;17.00;67.50;;;;;;5056786;28;20431;-68
2022/11/07 12:07:01;;;;;;;2.17;1.00;;;17.20;66.20;;;;;;5044848;28;20448;-69
2022/11/07 12:09:37;;;;;;;1.90;0.90;;;17.30;65.70;;;;;;5049908;28;20735;-70
2022/11/07 12:12:18;;;;;;;1.85;0.85;;;17.00;65.50;;;;;;5038546;28;20954;-70
2022/11/07 12:15:37;;;;;;;3.03;0.87;;;16.80;66.20;;;;;;5045122;28;20433;-71
2022/11/07 12:18:15;;;;;;;2.25;0.90;;;16.80;67.10;;;;;;5061424;28;20692;-69
2022/11/07 12:20:50;;;;;;;2.28;1.00;;;16.80;66.50;;;;;;5049918;28;20435;-69
2022/11/07 12:23:28;;;;;;;2.97;1.00;;;16.70;67.50;;;;;;5055144;28;20425;-71
2022/11/07 12:26:02;;;;;;;3.20;1.20;;;16.70;66.80;;;;;;5039413;28;20434;-71
2022/11/07 12:28:40;;;;;;;2.23;1.00;;;16.50;67.70;;;;;;5033404;28;20419;-70
2022/11/07 12:31:26;;;;;;;2.63;0.80;;;16.40;68.20;;;;;;5048198;28;20435;-71
2022/11/07 12:34:03;;;;;;;2.40;0.80;;;16.40;69.20;;;;;;5052931;28;20426;-71
2022/11/07 12:36:45;;;;;;;2.00;0.80;;;16.70;67.70;;;;;;5061949;28;20421;-70
2022/11/07 12:39:30;;;;;;;2.40;0.90;;;16.60;67.20;;;;;;5036645;28;20711;-70
2022/11/07 12:41:59;;;;;;;2.35;0.75;;;16.80;67.20;;;;;;5053864;28;20439;-71
2022/11/07 12:44:46;;;;;;;2.05;0.70;;;16.90;66.50;;;;;;5056070;28;20439;-69
2022/11/07 12:47:26;;;;;;;1.65;0.60;;;17.10;66.50;;;;;;5036432;28;20438;-71
2022/11/07 12:50:12;;;;;;;1.40;0.60;;;16.90;66.00;;;;;;5033350;28;20437;-70
2022/11/07 12:52:56;;;;;;;2.00;0.90;;;16.90;66.90;;;;;;5042969;28;20428;-70
2022/11/07 12:55:30;;;;;;;2.60;0.90;;;16.90;67.10;;;;;;5040007;28;20422;-69
2022/11/07 12:57:58;;;;;;;1.20;0.50;;;16.80;67.10;;;;;;5043442;28;21263;-70
2022/11/07 13:00:26;;;;;;;1.27;0.70;;;16.70;67.40;;;;;;5045251;28;20815;-70
2022/11/07 13:03:10;;;;;;;2.45;1.10;;;16.60;68.60;;;;;;5042314;28;20429;-70
2022/11/07 13:05:48;;;;;;;1.35;0.60;;;16.50;68.70;;;;;;5040973;28;20438;-70
2022/11/07 13:08:20;;;;;;;2.00;0.60;;;16.50;68.60;;;;;;5052022;28;20427;-72
2022/11/07 13:10:56;;;;;;;1.80;0.63;;;16.50;67.90;;;;;;5046051;28;21242;-69
2022/11/07 13:13:31;;;;;;;1.60;0.68;;;16.50;67.60;;;;;;5050998;28;20437;-68